createdAt,value
2023-05-14T00:01:35.993Z,73.30
2023-05-14T00:04:04.965Z,73.20
2023-05-14T00:06:33.005Z,73.27
2023-05-14T00:09:26.307Z,73.20
2023-05-14T00:11:54.356Z,73.40
2023-05-14T00:14:22.357Z,73.30
2023-05-14T00:16:50.533Z,73.32
2023-05-14T00:19:19.083Z,73.09
2023-05-14T00:21:47.892Z,73.24
2023-05-14T00:24:17.236Z,73.41
2023-05-14T00:26:45.280Z,73.04
2023-05-14T00:29:13.478Z,73.21
2023-05-14T00:31:41.623Z,73.10
2023-05-14T00:34:09.736Z,73.13
2023-05-14T00:36:38.016Z,73.15
2023-05-14T00:39:06.027Z,73.23
2023-05-14T00:41:35.778Z,72.95
2023-05-14T00:44:03.910Z,72.94
2023-05-14T00:46:32.483Z,72.81
2023-05-14T00:49:01.181Z,73.16
2023-05-14T00:51:29.256Z,72.65
2023-05-14T00:53:57.436Z,72.63
2023-05-14T00:56:26.666Z,72.62
2023-05-14T00:58:56.153Z,72.49
2023-05-14T01:01:24.469Z,72.60
2023-05-14T01:03:53.454Z,72.10
2023-05-14T01:06:29.845Z,72.38
2023-05-14T01:09:06.943Z,71.83
2023-05-14T01:11:41.263Z,71.78
2023-05-14T01:14:21.464Z,71.53
2023-05-14T01:16:51.908Z,72.02
2023-05-14T01:19:28.432Z,72.09
2023-05-14T01:21:59.194Z,71.99
2023-05-14T01:24:27.537Z,73.57
2023-05-14T01:30:05.825Z,73.42
2023-05-14T01:32:42.835Z,73.47
2023-05-14T01:35:40.332Z,73.58
2023-05-14T01:38:13.751Z,73.47
2023-05-14T01:40:45.347Z,73.38
2023-05-14T01:43:44.324Z,72.81
2023-05-14T01:46:12.602Z,72.82
2023-05-14T01:48:41.394Z,72.86
2023-05-14T01:51:09.812Z,72.63
2023-05-14T01:53:39.157Z,71.93
2023-05-14T01:56:07.911Z,72.10
2023-05-14T01:58:36.033Z,71.67
2023-05-14T02:01:04.117Z,71.90
2023-05-14T02:03:32.143Z,71.85
2023-05-14T02:06:00.346Z,71.54
2023-05-14T02:08:28.908Z,71.99
2023-05-14T02:10:58.314Z,71.97
2023-05-14T02:13:27.436Z,71.34
2023-05-14T02:15:55.450Z,71.67
2023-05-14T02:18:23.474Z,71.63
2023-05-14T02:20:51.462Z,71.63
2023-05-14T02:23:25.657Z,71.57
2023-05-14T02:26:00.620Z,72.01
2023-05-14T02:28:28.659Z,71.80
2023-05-14T02:31:00.389Z,71.12
2023-05-14T02:33:29.247Z,71.20
2023-05-14T02:35:57.244Z,71.61
2023-05-14T02:38:27.374Z,71.23
2023-05-14T02:40:57.770Z,71.52
2023-05-14T02:43:27.127Z,71.70
2023-05-14T02:45:55.179Z,71.83
2023-05-14T02:48:23.227Z,72.10
2023-05-14T02:50:52.066Z,71.61
2023-05-14T02:53:20.293Z,71.51
2023-05-14T02:55:48.321Z,71.66
2023-05-14T02:58:48.413Z,71.25
2023-05-14T03:01:18.667Z,72.13
2023-05-14T03:03:47.346Z,71.88
2023-05-14T03:06:16.055Z,72.17
2023-05-14T03:08:44.199Z,72.22
2023-05-14T03:11:13.774Z,71.55
2023-05-14T03:13:41.802Z,71.80
2023-05-14T03:16:11.373Z,71.50
2023-05-14T03:18:39.498Z,72.03
2023-05-14T03:21:09.996Z,72.34
2023-05-14T03:23:38.098Z,72.26
2023-05-14T03:26:06.319Z,72.74
2023-05-14T03:28:34.361Z,72.81
2023-05-14T03:31:02.557Z,73.49
2023-05-14T03:33:33.033Z,74.17
2023-05-14T03:36:01.114Z,74.15
2023-05-14T03:38:29.067Z,73.98
2023-05-14T03:40:59.075Z,73.62
2023-05-14T03:43:27.481Z,73.18
2023-05-14T03:45:56.119Z,73.10
2023-05-14T03:48:24.429Z,72.62
2023-05-14T03:50:53.926Z,72.64
2023-05-14T03:53:21.998Z,72.83
2023-05-14T03:55:50.136Z,72.88
2023-05-14T03:58:18.812Z,73.30
2023-05-14T04:00:46.957Z,73.06
2023-05-14T04:03:15.585Z,73.94
2023-05-14T04:05:43.778Z,72.99
2023-05-14T04:08:13.333Z,73.00
2023-05-14T04:10:41.456Z,73.80
2023-05-14T04:13:09.539Z,73.60
2023-05-14T04:15:40.112Z,72.96
2023-05-14T04:18:09.142Z,73.59
2023-05-14T04:20:37.773Z,73.18
2023-05-14T04:23:05.815Z,73.18
2023-05-14T04:25:35.253Z,72.43
2023-05-14T04:28:32.412Z,73.02
2023-05-14T04:31:00.514Z,72.88
2023-05-14T04:33:28.540Z,73.17
2023-05-14T04:35:56.540Z,73.19
2023-05-14T04:38:24.588Z,73.24
2023-05-14T04:40:53.936Z,72.92
2023-05-14T04:43:22.058Z,72.82
2023-05-14T04:45:50.090Z,72.60
2023-05-14T04:48:18.119Z,72.66
2023-05-14T04:50:46.257Z,73.32
2023-05-14T04:53:14.305Z,72.97
2023-05-14T04:55:42.334Z,72.76
2023-05-14T04:58:11.761Z,72.72
2023-05-14T05:00:40.058Z,72.34
2023-05-14T05:03:08.695Z,72.80
2023-05-14T05:05:36.824Z,72.14
2023-05-14T05:08:05.516Z,72.63
2023-05-14T05:10:33.628Z,72.45
2023-05-14T05:13:02.103Z,71.96
2023-05-14T05:15:31.447Z,71.74
2023-05-14T05:17:59.529Z,71.61
2023-05-14T05:20:28.241Z,72.35
2023-05-14T05:22:57.034Z,72.24
2023-05-14T05:25:25.199Z,72.19
2023-05-14T05:27:53.272Z,71.76
2023-05-14T05:30:21.486Z,71.93
2023-05-14T05:32:51.131Z,71.81
2023-05-14T05:35:19.423Z,71.99
2023-05-14T05:37:47.409Z,71.62
2023-05-14T05:40:15.758Z,71.70
2023-05-14T05:42:43.940Z,71.66
2023-05-14T05:45:12.557Z,72.22
2023-05-14T05:47:40.817Z,72.05
2023-05-14T05:50:12.173Z,72.40
2023-05-14T05:52:40.505Z,71.55
2023-05-14T05:55:09.791Z,71.75
2023-05-14T05:57:37.776Z,71.14
2023-05-14T06:00:13.171Z,71.49
2023-05-14T06:02:42.796Z,71.61
2023-05-14T06:05:12.633Z,71.46
2023-05-14T06:07:40.865Z,70.93
2023-05-14T06:10:09.935Z,71.21
2023-05-14T06:12:37.966Z,71.03
2023-05-14T06:15:07.516Z,70.70
2023-05-14T06:17:35.637Z,70.86
2023-05-14T06:20:05.502Z,70.69
2023-05-14T06:22:35.018Z,71.13
2023-05-14T06:25:05.534Z,71.28
2023-05-14T06:27:36.203Z,70.90
2023-05-14T06:30:04.699Z,70.52
2023-05-14T06:32:32.772Z,70.82
2023-05-14T06:35:00.878Z,71.05
2023-05-14T06:37:31.182Z,71.74
2023-05-14T06:40:05.634Z,71.58
2023-05-14T06:42:33.956Z,71.42
2023-05-14T06:45:02.128Z,71.23
2023-05-14T06:47:30.185Z,70.87
2023-05-14T06:49:58.630Z,71.10
2023-05-14T06:52:27.037Z,70.72
2023-05-14T06:54:55.173Z,70.71
2023-05-14T06:57:24.525Z,71.34
2023-05-14T06:59:52.557Z,71.28
2023-05-14T07:02:20.858Z,71.13
2023-05-14T07:04:48.986Z,71.00
2023-05-14T07:07:20.555Z,70.66
2023-05-14T07:09:48.733Z,70.72
2023-05-14T07:12:16.716Z,70.65
2023-05-14T07:14:46.748Z,70.31
2023-05-14T07:17:16.156Z,70.35
2023-05-14T07:19:44.208Z,69.88
2023-05-14T07:22:13.822Z,69.75
2023-05-14T07:24:41.860Z,69.54
2023-05-14T07:27:10.000Z,69.51
2023-05-14T07:29:38.046Z,70.05
2023-05-14T07:32:07.596Z,69.87
2023-05-14T07:34:35.742Z,70.08
2023-05-14T07:37:04.173Z,70.06
2023-05-14T07:39:32.257Z,69.83
2023-05-14T07:42:01.323Z,69.63
2023-05-14T07:44:29.383Z,69.69
2023-05-14T07:46:57.377Z,69.72
2023-05-14T07:49:26.914Z,70.53
2023-05-14T07:51:54.895Z,69.87
2023-05-14T07:54:22.893Z,69.50
2023-05-14T07:56:50.930Z,69.63
2023-05-14T07:59:18.925Z,69.79
2023-05-14T08:01:46.975Z,70.16
2023-05-14T08:04:16.196Z,69.51
2023-05-14T08:06:45.673Z,69.79
2023-05-14T08:09:13.906Z,70.42
2023-05-14T08:11:41.988Z,70.73
2023-05-14T08:14:09.992Z,71.17
2023-05-14T08:16:38.574Z,71.28
2023-05-14T08:19:06.938Z,71.04
2023-05-14T08:21:35.010Z,71.54
2023-05-14T08:24:05.173Z,71.32
2023-05-14T08:26:33.234Z,70.60
2023-05-14T08:29:01.200Z,70.22
2023-05-14T08:31:29.284Z,69.64
2023-05-14T08:33:57.624Z,70.29
2023-05-14T08:36:25.647Z,70.07
2023-05-14T08:38:53.751Z,70.24
2023-05-14T08:41:23.306Z,69.63
2023-05-14T08:44:05.055Z,69.97
2023-05-14T08:46:33.890Z,70.26
2023-05-14T08:49:12.337Z,68.75
2023-05-14T08:51:40.724Z,69.73
2023-05-14T08:54:09.061Z,69.54
2023-05-14T08:56:39.772Z,68.41
2023-05-14T08:59:07.783Z,69.05
2023-05-14T09:01:39.451Z,68.54
2023-05-14T09:04:08.569Z,68.20
2023-05-14T09:06:38.437Z,68.67
2023-05-14T09:09:06.897Z,69.10
2023-05-14T09:11:34.969Z,66.98
2023-05-14T09:14:04.652Z,65.87
2023-05-14T09:16:32.800Z,65.64
2023-05-14T09:19:00.926Z,65.61
2023-05-14T09:21:32.212Z,66.01
2023-05-14T09:24:01.967Z,64.83
2023-05-14T09:26:34.831Z,64.77
2023-05-14T09:29:05.070Z,64.28
2023-05-14T09:31:34.554Z,63.87
2023-05-14T09:34:02.561Z,63.24
2023-05-14T09:36:31.573Z,63.76
2023-05-14T09:38:59.601Z,64.37
2023-05-14T09:41:27.644Z,65.49
2023-05-14T09:43:56.830Z,65.11
2023-05-14T09:46:30.164Z,63.94
2023-05-14T09:48:58.744Z,65.58
2023-05-14T09:51:26.769Z,63.93
2023-05-14T09:53:56.156Z,63.23
2023-05-14T09:56:24.214Z,63.45
2023-05-14T09:58:54.967Z,63.34
2023-05-14T10:01:26.828Z,64.31
2023-05-14T10:03:55.861Z,63.63
2023-05-14T10:06:28.470Z,63.65
2023-05-14T10:09:00.167Z,63.43
2023-05-14T10:11:34.405Z,65.39
2023-05-14T10:14:08.562Z,64.33
2023-05-14T10:16:48.861Z,62.25
2023-05-14T10:19:18.730Z,61.96
2023-05-14T10:21:50.327Z,61.74
2023-05-14T10:24:19.695Z,62.32
2023-05-14T10:26:48.512Z,62.86
2023-05-14T10:29:16.528Z,62.80
2023-05-14T10:31:51.603Z,62.77
2023-05-14T10:34:34.578Z,63.39
2023-05-14T10:37:03.467Z,62.78
2023-05-14T10:39:46.399Z,62.84
2023-05-14T10:42:17.928Z,63.17
2023-05-14T10:44:55.470Z,61.87
2023-05-14T10:47:25.441Z,61.93
2023-05-14T10:49:56.853Z,61.55
2023-05-14T10:52:25.984Z,61.90
2023-05-14T10:54:56.829Z,60.89
2023-05-14T10:57:28.100Z,60.87
2023-05-14T10:59:58.922Z,61.64
2023-05-14T11:02:29.972Z,60.42
2023-05-14T11:05:03.533Z,60.63
2023-05-14T11:07:33.878Z,58.79
2023-05-14T11:10:05.932Z,59.35
2023-05-14T11:12:35.357Z,57.76
2023-05-14T11:15:06.763Z,58.78
2023-05-14T11:17:37.403Z,61.67
2023-05-14T11:20:08.060Z,60.40
2023-05-14T11:22:37.357Z,61.66
2023-05-14T11:25:07.259Z,61.62
2023-05-14T11:27:36.661Z,61.02
2023-05-14T11:30:06.572Z,61.89
2023-05-14T11:32:36.611Z,60.88
2023-05-14T11:35:05.887Z,60.47
2023-05-14T11:37:33.945Z,59.70
2023-05-14T11:40:02.892Z,60.30
2023-05-14T11:42:30.924Z,59.37
2023-05-14T11:44:59.052Z,59.17
2023-05-14T11:47:27.074Z,60.62
2023-05-14T11:49:56.477Z,60.92
2023-05-14T11:52:24.488Z,60.26
2023-05-14T11:54:52.475Z,60.01
2023-05-14T11:57:22.582Z,58.83
2023-05-14T11:59:57.063Z,58.24
2023-05-14T12:02:27.776Z,60.10
2023-05-14T12:04:58.310Z,60.55
2023-05-14T12:07:31.115Z,58.84
2023-05-14T12:10:04.011Z,57.76
2023-05-14T12:12:37.264Z,58.17
2023-05-14T12:15:13.152Z,58.72
2023-05-14T12:17:41.469Z,57.83
2023-05-14T12:20:12.998Z,57.31
2023-05-14T12:22:43.227Z,58.90
2023-05-14T12:25:17.196Z,57.86
2023-05-14T12:27:46.357Z,59.46
2023-05-14T12:32:46.758Z,59.98
2023-05-14T12:35:16.364Z,58.63
2023-05-14T12:37:44.365Z,57.94
2023-05-14T12:40:13.414Z,59.91
2023-05-14T12:42:41.529Z,59.54
2023-05-14T12:45:10.256Z,60.63
2023-05-14T12:47:38.548Z,58.10
2023-05-14T12:50:08.414Z,56.85
2023-05-14T12:52:39.763Z,57.00
2023-05-14T12:55:09.936Z,56.92
2023-05-14T12:57:39.275Z,58.79
2023-05-14T13:00:32.439Z,58.53
2023-05-14T13:03:24.720Z,58.82
2023-05-14T13:13:21.853Z,59.86
2023-05-14T13:17:04.846Z,60.53
2023-05-14T13:24:34.661Z,59.20
2023-05-14T13:27:09.324Z,58.01
2023-05-14T13:29:37.883Z,58.19
2023-05-14T13:32:08.273Z,58.52
2023-05-14T13:34:36.500Z,58.63
2023-05-14T13:37:04.817Z,58.90
2023-05-14T13:39:32.942Z,59.47
2023-05-14T13:42:01.301Z,59.25
2023-05-14T13:44:30.766Z,58.79
2023-05-14T13:46:58.953Z,58.35
2023-05-14T13:49:27.027Z,58.27
2023-05-14T13:51:54.983Z,58.91
2023-05-14T13:54:23.928Z,59.35
2023-05-14T13:56:52.009Z,59.06
2023-05-14T13:59:20.435Z,58.09
2023-05-14T14:01:51.474Z,58.41
2023-05-14T14:04:20.920Z,58.39
2023-05-14T14:06:48.978Z,58.24
2023-05-14T14:09:17.020Z,57.83
2023-05-14T14:11:45.059Z,57.72
2023-05-14T14:14:13.070Z,57.84
2023-05-14T14:17:11.569Z,57.15
2023-05-14T14:19:39.538Z,56.63
2023-05-14T14:22:08.808Z,57.20
2023-05-14T14:24:36.829Z,57.58
2023-05-14T14:27:07.635Z,56.63
2023-05-14T14:29:36.702Z,57.43
2023-05-14T14:32:06.155Z,57.41
2023-05-14T14:34:35.772Z,57.71
2023-05-14T14:37:03.775Z,57.76
2023-05-14T14:39:31.777Z,57.59
2023-05-14T14:41:59.823Z,57.73
2023-05-14T14:44:27.841Z,57.63
2023-05-14T14:46:55.842Z,57.79
2023-05-14T14:49:24.392Z,56.59
2023-05-14T14:51:53.763Z,57.62
2023-05-14T14:54:21.757Z,56.80
2023-05-14T14:56:53.071Z,56.64
2023-05-14T14:59:21.085Z,57.01
2023-05-14T15:01:49.529Z,57.87
2023-05-14T15:04:17.721Z,58.28
2023-05-14T15:06:45.768Z,57.74
2023-05-14T15:09:15.170Z,57.10
2023-05-14T15:11:43.256Z,57.37
2023-05-14T15:14:11.711Z,57.28
2023-05-14T15:16:39.786Z,56.17
2023-05-14T15:19:07.879Z,56.43
2023-05-14T15:21:36.430Z,55.90
2023-05-14T15:24:05.405Z,55.58
2023-05-14T15:26:37.467Z,54.46
2023-05-14T15:29:05.677Z,56.37
2023-05-14T15:31:34.128Z,56.91
2023-05-14T15:34:03.602Z,56.08
2023-05-14T15:36:32.154Z,54.84
2023-05-14T15:39:00.673Z,55.56
2023-05-14T15:41:34.390Z,56.28
2023-05-14T15:44:03.830Z,56.10
2023-05-14T15:46:32.152Z,56.08
2023-05-14T15:49:00.253Z,56.96
2023-05-14T15:51:53.421Z,56.77
2023-05-14T15:54:21.611Z,56.55
2023-05-14T15:56:49.650Z,56.79
2023-05-14T15:59:20.273Z,55.86
2023-05-14T16:01:50.071Z,56.43
2023-05-14T16:04:18.132Z,56.24
2023-05-14T16:06:46.237Z,55.50
2023-05-14T16:09:14.960Z,54.55
2023-05-14T16:11:43.162Z,54.64
2023-05-14T16:14:11.709Z,53.85
2023-05-14T16:16:41.143Z,54.31
2023-05-14T16:19:09.574Z,54.92
2023-05-14T16:21:37.814Z,55.79
2023-05-14T16:24:06.982Z,55.72
2023-05-14T16:26:35.177Z,55.54
2023-05-14T16:29:03.440Z,55.33
2023-05-14T16:31:32.059Z,54.94
2023-05-14T16:34:01.539Z,54.84
2023-05-14T16:36:29.698Z,54.91
2023-05-14T16:39:07.299Z,54.45
2023-05-14T16:41:37.493Z,55.04
2023-05-14T16:44:05.921Z,56.15
2023-05-14T16:46:34.593Z,54.99
2023-05-14T16:49:04.071Z,56.00
2023-05-14T16:51:32.804Z,55.36
2023-05-14T16:54:01.643Z,56.00
2023-05-14T16:56:30.287Z,54.70
2023-05-14T16:58:58.360Z,54.02
2023-05-14T17:01:27.413Z,54.30
2023-05-14T17:03:56.108Z,54.79
2023-05-14T17:06:25.719Z,54.32
2023-05-14T17:08:53.775Z,54.97
2023-05-14T17:11:21.815Z,54.96
2023-05-14T17:13:50.121Z,55.30
2023-05-14T17:16:18.327Z,56.08
2023-05-14T17:18:46.941Z,56.11
2023-05-14T17:21:15.225Z,55.94
2023-05-14T17:23:44.581Z,55.92
2023-05-14T17:26:15.255Z,55.89
2023-05-14T17:28:43.280Z,55.69
2023-05-14T17:31:11.487Z,55.80
2023-05-14T17:33:39.556Z,56.12
2023-05-14T17:36:32.773Z,55.88
2023-05-14T17:39:02.387Z,56.70
2023-05-14T17:41:30.522Z,57.15
2023-05-14T17:43:58.562Z,56.48
2023-05-14T17:46:26.883Z,56.49
2023-05-14T17:48:54.906Z,56.61
2023-05-14T17:51:22.906Z,56.28
2023-05-14T17:53:50.988Z,56.77
2023-05-14T17:56:20.940Z,56.78
2023-05-14T17:58:50.037Z,56.35
2023-05-14T18:01:18.318Z,56.25
2023-05-14T18:03:46.513Z,56.46
2023-05-14T18:06:15.013Z,56.26
2023-05-14T18:08:43.075Z,56.83
2023-05-14T18:11:11.268Z,57.08
2023-05-14T18:13:40.639Z,57.00
2023-05-14T18:16:09.185Z,57.27
2023-05-14T18:18:37.319Z,57.97
2023-05-14T18:21:05.553Z,58.23
2023-05-14T18:23:33.605Z,58.37
2023-05-14T18:26:02.304Z,58.65
2023-05-14T18:28:31.484Z,59.00
2023-05-14T18:31:00.952Z,59.64
2023-05-14T18:33:29.379Z,59.86
2023-05-14T18:35:58.520Z,59.58
2023-05-14T18:38:26.824Z,60.10
2023-05-14T18:40:54.873Z,60.32
2023-05-14T18:43:22.881Z,59.56
2023-05-14T18:45:50.909Z,60.05
2023-05-14T18:48:20.382Z,59.75
2023-05-14T18:50:48.447Z,60.05
2023-05-14T18:53:16.461Z,60.22
2023-05-14T18:55:44.604Z,60.21
2023-05-14T18:58:14.386Z,60.28
2023-05-14T19:00:42.508Z,60.06
2023-05-14T19:03:10.758Z,60.42
2023-05-14T19:05:40.545Z,60.81
2023-05-14T19:08:09.419Z,60.94
2023-05-14T19:10:38.337Z,61.02
2023-05-14T19:13:06.482Z,61.21
2023-05-14T19:15:34.850Z,60.99
2023-05-14T19:18:04.160Z,61.40
2023-05-14T19:20:32.325Z,61.67
2023-05-14T19:23:01.783Z,61.79
2023-05-14T19:25:30.559Z,62.05
2023-05-14T19:28:01.528Z,61.74
2023-05-14T19:30:29.631Z,61.72
2023-05-14T19:32:58.443Z,61.94
2023-05-14T19:35:26.729Z,61.70
2023-05-14T19:37:54.858Z,61.82
2023-05-14T19:40:24.591Z,61.82
2023-05-14T19:42:53.044Z,61.95
2023-05-14T19:45:21.133Z,61.82
2023-05-14T19:47:49.336Z,61.98
2023-05-14T19:50:17.659Z,62.07
2023-05-14T19:52:45.895Z,61.72
2023-05-14T19:55:14.068Z,61.93
2023-05-14T19:57:43.616Z,62.13
2023-05-14T20:00:14.373Z,62.07
2023-05-14T20:02:43.271Z,62.44
2023-05-14T20:05:15.924Z,62.57
2023-05-14T20:07:44.818Z,62.78
2023-05-14T20:10:12.852Z,62.81
2023-05-14T20:12:41.278Z,62.59
2023-05-14T20:15:11.899Z,62.80
2023-05-14T20:17:40.272Z,62.82
2023-05-14T20:20:10.055Z,62.86
2023-05-14T20:22:38.556Z,62.79
2023-05-14T20:25:08.028Z,63.44
2023-05-14T20:27:36.244Z,63.55
2023-05-14T20:30:04.789Z,64.04
2023-05-14T20:32:34.496Z,64.17
2023-05-14T20:35:02.835Z,63.97
2023-05-14T20:37:32.510Z,64.37
2023-05-14T20:40:02.326Z,64.28
2023-05-14T20:42:30.445Z,64.39
2023-05-14T20:44:58.631Z,64.32
2023-05-14T20:47:30.369Z,64.48
2023-05-14T20:49:59.894Z,64.76
2023-05-14T20:52:28.196Z,64.82
2023-05-14T20:54:56.197Z,64.90
2023-05-14T20:57:24.424Z,64.80
2023-05-14T20:59:52.618Z,65.17
2023-05-14T21:02:20.893Z,65.28
2023-05-14T21:04:49.222Z,65.11
2023-05-14T21:07:18.570Z,64.92
2023-05-14T21:09:52.102Z,65.05
2023-05-14T21:12:20.256Z,64.74
2023-05-14T21:14:48.383Z,64.60
2023-05-14T21:17:16.489Z,64.43
2023-05-14T21:19:44.673Z,64.52
2023-05-14T21:22:13.730Z,64.81
2023-05-14T21:24:43.179Z,65.17
2023-05-14T21:27:11.274Z,65.48
2023-05-14T21:29:39.603Z,65.74
2023-05-14T21:32:08.691Z,65.67
2023-05-14T21:34:36.999Z,65.65
2023-05-14T21:37:05.223Z,65.49
2023-05-14T21:39:33.292Z,65.44
2023-05-14T21:42:02.689Z,65.61
2023-05-14T21:44:30.689Z,65.59
2023-05-14T21:46:59.383Z,65.53
2023-05-14T21:49:27.520Z,65.84
2023-05-14T21:51:55.647Z,66.06
2023-05-14T21:54:23.689Z,65.83
2023-05-14T21:56:51.876Z,65.82
2023-05-14T21:59:21.435Z,65.40
2023-05-14T22:04:20.856Z,65.54
2023-05-14T22:06:49.135Z,65.63
2023-05-14T22:09:17.204Z,66.12
2023-05-14T22:11:45.198Z,65.77
2023-05-14T22:14:13.851Z,65.96
2023-05-14T22:16:43.495Z,66.10
2023-05-14T22:19:11.868Z,65.99
2023-05-14T22:21:39.999Z,65.95
2023-05-14T22:24:08.543Z,65.97
2023-05-14T22:26:36.653Z,66.37
2023-05-14T22:29:04.825Z,66.33
2023-05-14T22:31:32.946Z,66.15
2023-05-14T22:34:02.343Z,65.72
2023-05-14T22:36:30.536Z,66.28
2023-05-14T22:38:58.568Z,66.31
2023-05-14T22:41:26.690Z,66.66
2023-05-14T22:43:54.845Z,67.13
2023-05-14T22:46:22.968Z,66.43
2023-05-14T22:48:51.052Z,66.51
2023-05-14T22:51:20.454Z,66.49
2023-05-14T22:53:48.573Z,66.98
2023-05-14T22:56:17.868Z,66.68
2023-05-14T22:58:45.819Z,66.67
2023-05-14T23:01:13.891Z,67.09
2023-05-14T23:03:42.063Z,67.11
2023-05-14T23:06:10.032Z,66.88
2023-05-14T23:08:39.347Z,67.13
2023-05-14T23:11:07.602Z,67.34
2023-05-14T23:13:35.655Z,67.50
2023-05-14T23:16:05.934Z,66.98
2023-05-14T23:18:35.221Z,67.30
2023-05-14T23:21:03.472Z,67.23
2023-05-14T23:23:31.462Z,67.30
2023-05-14T23:26:01.064Z,66.78
2023-05-14T23:28:29.078Z,66.95
2023-05-14T23:30:57.081Z,66.99
2023-05-14T23:33:25.190Z,67.21
2023-05-14T23:35:53.339Z,67.10
2023-05-14T23:38:21.710Z,67.36
2023-05-14T23:40:50.131Z,67.25
2023-05-14T23:43:19.504Z,67.05
2023-05-14T23:45:47.599Z,67.25
2023-05-14T23:48:15.675Z,67.43
2023-05-14T23:50:43.898Z,67.50
2023-05-14T23:53:11.939Z,67.44
2023-05-14T23:55:40.033Z,67.13
2023-05-14T23:58:34.468Z,67.11
